createdAt,value
2022-10-05T00:02:18.218Z,4.00
2022-10-05T00:04:45.251Z,4.10
2022-10-05T00:07:15.250Z,3.63
2022-10-05T00:09:44.769Z,4.22
2022-10-05T00:12:16.848Z,4.00
2022-10-05T00:14:44.917Z,3.50
2022-10-05T00:17:16.092Z,4.05
2022-10-05T00:19:43.693Z,4.15
2022-10-05T00:22:14.153Z,4.10
2022-10-05T00:24:40.733Z,4.30
2022-10-05T00:27:17.460Z,3.87
2022-10-05T00:29:44.286Z,3.88
2022-10-05T00:32:10.826Z,4.18
2022-10-05T00:34:38.108Z,3.97
2022-10-05T00:37:06.444Z,3.97
2022-10-05T00:39:34.262Z,3.83
2022-10-05T00:42:20.695Z,3.95
2022-10-05T00:44:52.284Z,3.78
2022-10-05T00:47:34.500Z,4.00
2022-10-05T00:50:32.564Z,3.95
2022-10-05T00:53:08.737Z,4.47
2022-10-05T00:55:45.952Z,4.10
2022-10-05T00:58:21.904Z,4.00
2022-10-05T01:00:58.513Z,3.90
2022-10-05T01:03:34.422Z,3.75
2022-10-05T01:06:12.591Z,4.20
2022-10-05T01:08:48.856Z,4.15
2022-10-05T01:11:20.234Z,3.95
2022-10-05T01:13:57.698Z,3.75
2022-10-05T01:16:30.149Z,3.72
2022-10-05T01:19:05.949Z,3.63
2022-10-05T01:21:38.924Z,3.85
2022-10-05T01:24:38.146Z,3.70
2022-10-05T01:27:16.069Z,4.00
2022-10-05T01:29:49.619Z,3.80
2022-10-05T01:32:25.018Z,3.83
2022-10-05T01:34:59.874Z,3.55
2022-10-05T01:37:33.052Z,3.67
2022-10-05T01:40:07.676Z,3.92
2022-10-05T01:42:42.186Z,3.60
2022-10-05T01:45:19.491Z,3.27
2022-10-05T01:47:49.657Z,3.67
2022-10-05T01:50:25.642Z,3.58
2022-10-05T01:53:00.760Z,3.90
2022-10-05T01:55:34.990Z,3.97
2022-10-05T01:58:11.254Z,3.43
2022-10-05T02:00:48.943Z,3.80
2022-10-05T02:03:18.856Z,3.67
2022-10-05T02:05:52.282Z,3.40
2022-10-05T02:08:24.178Z,3.80
2022-10-05T02:10:57.857Z,4.00
2022-10-05T02:13:30.677Z,3.60
2022-10-05T02:16:03.286Z,4.20
2022-10-05T02:18:35.269Z,3.88
2022-10-05T02:21:03.780Z,3.72
2022-10-05T02:23:34.399Z,3.63
2022-10-05T02:26:02.033Z,4.00
2022-10-05T02:28:33.469Z,4.00
2022-10-05T02:31:06.822Z,4.07
2022-10-05T02:33:34.539Z,4.40
2022-10-05T02:36:02.180Z,4.07
2022-10-05T02:38:38.094Z,3.72
2022-10-05T02:41:14.351Z,3.83
2022-10-05T02:43:49.888Z,4.22
2022-10-05T02:46:28.887Z,4.22
2022-10-05T02:49:07.000Z,3.97
2022-10-05T02:51:41.565Z,3.80
2022-10-05T02:54:15.404Z,3.95
2022-10-05T02:56:52.699Z,4.05
2022-10-05T02:59:26.008Z,4.15
2022-10-05T03:02:00.369Z,4.07
2022-10-05T03:04:34.667Z,3.95
2022-10-05T03:07:15.928Z,4.30
2022-10-05T03:09:51.604Z,4.60
2022-10-05T03:12:30.787Z,4.90
2022-10-05T03:15:09.025Z,3.93
2022-10-05T03:17:49.685Z,4.82
2022-10-05T03:20:29.206Z,4.25
2022-10-05T03:22:58.677Z,4.57
2022-10-05T03:25:41.200Z,4.70
2022-10-05T03:28:15.555Z,4.33
2022-10-05T03:30:48.447Z,4.50
2022-10-05T03:33:22.628Z,4.78
2022-10-05T03:35:57.635Z,3.97
2022-10-05T03:38:32.215Z,4.45
2022-10-05T03:41:07.297Z,4.60
2022-10-05T03:43:53.380Z,4.43
2022-10-05T03:46:32.466Z,4.70
2022-10-05T03:49:08.485Z,4.38
2022-10-05T03:51:37.651Z,4.70
2022-10-05T03:54:13.331Z,5.07
2022-10-05T03:56:47.974Z,4.97
2022-10-05T03:59:18.379Z,4.75
2022-10-05T04:01:52.034Z,5.05
2022-10-05T04:04:29.145Z,4.90
2022-10-05T04:06:57.839Z,4.97
2022-10-05T04:09:28.188Z,5.40
2022-10-05T04:12:01.637Z,5.40
2022-10-05T04:14:33.837Z,4.80
2022-10-05T04:17:05.911Z,4.72
2022-10-05T04:19:39.395Z,4.70
2022-10-05T04:22:12.449Z,4.85
2022-10-05T04:24:43.956Z,5.32
2022-10-05T04:27:16.124Z,4.95
2022-10-05T04:29:49.715Z,5.20
2022-10-05T04:32:29.937Z,4.83
2022-10-05T04:35:13.515Z,4.88
2022-10-05T04:37:49.835Z,4.80
2022-10-05T04:40:31.957Z,4.63
2022-10-05T04:43:09.442Z,4.65
2022-10-05T04:45:50.816Z,4.70
2022-10-05T04:48:39.429Z,4.40
2022-10-05T04:51:20.667Z,4.85
2022-10-05T04:53:54.339Z,4.38
2022-10-05T04:56:28.603Z,4.38
2022-10-05T04:59:06.895Z,4.90
2022-10-05T05:01:47.210Z,4.32
2022-10-05T05:04:33.427Z,4.47
2022-10-05T05:07:13.764Z,4.15
2022-10-05T05:10:10.122Z,4.68
2022-10-05T05:12:48.934Z,4.80
2022-10-05T05:15:28.829Z,4.30
2022-10-05T05:18:13.002Z,4.57
2022-10-05T05:20:54.301Z,4.22
2022-10-05T05:23:28.990Z,4.72
2022-10-05T05:26:07.733Z,4.20
2022-10-05T05:28:43.338Z,4.50
2022-10-05T05:31:19.186Z,4.32
2022-10-05T05:33:58.668Z,4.35
2022-10-05T05:36:35.663Z,4.38
2022-10-05T05:39:22.035Z,4.40
2022-10-05T05:41:58.703Z,4.38
2022-10-05T05:44:27.108Z,3.90
2022-10-05T05:47:03.863Z,4.60
2022-10-05T05:49:41.949Z,4.40
2022-10-05T05:52:16.663Z,4.17
2022-10-05T05:54:49.520Z,4.38
2022-10-05T05:57:21.767Z,4.30
2022-10-05T06:00:00.665Z,4.20
2022-10-05T06:02:31.782Z,4.13
2022-10-05T06:05:08.701Z,4.37
2022-10-05T06:07:38.063Z,4.10
2022-10-05T06:10:19.223Z,4.68
2022-10-05T06:12:50.566Z,4.43
2022-10-05T06:15:32.630Z,4.40
2022-10-05T06:18:03.093Z,3.90
2022-10-05T06:20:35.851Z,3.95
2022-10-05T06:23:11.889Z,4.75
2022-10-05T06:25:51.792Z,4.68
2022-10-05T06:28:18.584Z,4.60
2022-10-05T06:30:55.036Z,4.10
2022-10-05T06:33:33.514Z,4.40
2022-10-05T06:36:13.700Z,4.22
2022-10-05T06:38:59.682Z,4.63
2022-10-05T06:41:41.016Z,4.70
2022-10-05T06:44:14.250Z,4.13
2022-10-05T06:46:51.292Z,4.03
2022-10-05T06:49:21.651Z,4.13
2022-10-05T06:51:55.001Z,4.05
2022-10-05T06:54:34.456Z,4.10
2022-10-05T06:57:10.506Z,4.00
2022-10-05T06:59:46.464Z,4.30
2022-10-05T07:02:21.569Z,4.20
2022-10-05T07:05:19.466Z,4.32
2022-10-05T07:07:53.585Z,4.20
2022-10-05T07:10:30.703Z,3.70
2022-10-05T07:13:08.679Z,3.80
2022-10-05T07:15:42.439Z,3.90
2022-10-05T07:18:30.366Z,3.80
2022-10-05T07:21:03.999Z,3.80
2022-10-05T07:23:45.287Z,3.80
2022-10-05T07:26:18.486Z,3.47
2022-10-05T07:28:48.476Z,3.90
2022-10-05T07:31:26.143Z,3.55
2022-10-05T07:34:01.145Z,3.72
2022-10-05T07:36:37.751Z,3.50
2022-10-05T07:39:13.592Z,3.08
2022-10-05T07:41:43.888Z,3.40
2022-10-05T07:44:19.972Z,3.40
2022-10-05T07:46:53.747Z,3.60
2022-10-05T07:49:31.901Z,3.83
2022-10-05T07:52:03.243Z,3.33
2022-10-05T07:54:37.987Z,3.13
2022-10-05T07:57:14.403Z,3.30
2022-10-05T07:59:47.908Z,2.95
2022-10-05T08:02:32.567Z,3.90
2022-10-05T08:05:05.157Z,3.45
2022-10-05T08:07:35.092Z,3.10
2022-10-05T08:10:18.011Z,3.05
2022-10-05T08:13:00.008Z,3.22
2022-10-05T08:15:33.149Z,3.13
2022-10-05T08:18:02.764Z,3.17
2022-10-05T08:20:40.095Z,3.20
2022-10-05T08:23:18.437Z,2.78
2022-10-05T08:25:54.939Z,3.15
2022-10-05T08:28:26.495Z,3.00
2022-10-05T08:31:03.766Z,3.00
2022-10-05T08:33:40.723Z,2.85
2022-10-05T08:36:11.207Z,2.53
2022-10-05T08:38:39.591Z,2.63
2022-10-05T08:41:26.077Z,2.70
2022-10-05T08:44:13.401Z,2.97
2022-10-05T08:47:08.238Z,2.70
2022-10-05T08:49:58.108Z,2.63
2022-10-05T08:52:28.961Z,2.85
2022-10-05T08:55:28.371Z,2.60
2022-10-05T08:58:40.769Z,2.58
2022-10-05T09:01:17.910Z,2.53
2022-10-05T09:04:09.266Z,2.47
2022-10-05T09:07:14.129Z,2.60
2022-10-05T09:10:11.011Z,2.57
2022-10-05T09:13:07.722Z,2.47
2022-10-05T09:16:15.281Z,2.45
2022-10-05T09:19:19.461Z,2.15
2022-10-05T09:21:56.462Z,2.40
2022-10-05T09:24:27.939Z,2.30
2022-10-05T09:27:08.830Z,2.00
2022-10-05T09:30:05.095Z,2.55
2022-10-05T09:33:19.514Z,2.17
2022-10-05T09:36:24.678Z,2.20
2022-10-05T09:39:33.829Z,2.10
2022-10-05T09:42:25.997Z,2.22
2022-10-05T09:45:29.734Z,2.35
2022-10-05T09:48:43.760Z,2.40
2022-10-05T09:51:43.310Z,2.45
2022-10-05T09:54:48.997Z,2.50
2022-10-05T09:57:37.156Z,2.20
2022-10-05T10:00:22.357Z,2.42
2022-10-05T10:03:33.580Z,2.33
2022-10-05T10:06:20.170Z,2.50
2022-10-05T10:08:59.353Z,2.40
2022-10-05T10:11:46.166Z,2.40
2022-10-05T10:14:58.237Z,2.70
2022-10-05T10:17:54.965Z,2.75
2022-10-05T10:20:35.853Z,2.42
2022-10-05T10:23:27.507Z,2.13
2022-10-05T10:26:25.152Z,2.50
2022-10-05T10:29:42.038Z,2.33
2022-10-05T10:32:26.281Z,2.30
2022-10-05T10:35:20.285Z,2.15
2022-10-05T10:38:27.548Z,2.10
2022-10-05T10:41:27.595Z,2.10
2022-10-05T10:44:32.855Z,1.92
2022-10-05T10:47:36.995Z,2.10
2022-10-05T10:50:28.689Z,2.05
2022-10-05T10:53:11.951Z,1.80
2022-10-05T10:55:45.388Z,2.15
2022-10-05T10:58:41.564Z,2.20
2022-10-05T11:01:25.687Z,2.20
2022-10-05T11:04:32.096Z,1.80
2022-10-05T11:07:22.983Z,2.03
2022-10-05T11:10:25.320Z,2.45
2022-10-05T11:13:17.234Z,2.28
2022-10-05T11:16:21.458Z,2.22
2022-10-05T11:19:05.858Z,2.47
2022-10-05T11:21:41.469Z,2.50
2022-10-05T11:24:44.548Z,2.75
2022-10-05T11:27:36.580Z,2.60
2022-10-05T11:30:32.572Z,2.53
2022-10-05T11:33:31.775Z,2.38
2022-10-05T11:36:25.696Z,2.50
2022-10-05T11:39:28.011Z,2.60
2022-10-05T11:42:32.708Z,2.30
2022-10-05T11:45:22.087Z,2.53
2022-10-05T11:48:37.279Z,2.38
2022-10-05T11:51:30.732Z,2.23
2022-10-05T11:54:15.228Z,2.40
2022-10-05T11:56:49.511Z,2.40
2022-10-05T11:59:23.668Z,2.40
2022-10-05T12:01:57.656Z,2.30
2022-10-05T12:04:32.067Z,2.37
2022-10-05T12:07:09.396Z,2.22
2022-10-05T12:09:50.242Z,2.40
2022-10-05T12:12:23.282Z,2.38
2022-10-05T12:14:55.258Z,2.45
2022-10-05T12:17:32.915Z,2.17
2022-10-05T12:20:06.037Z,1.92
2022-10-05T12:22:37.752Z,2.00
2022-10-05T12:25:21.043Z,2.00
2022-10-05T12:27:51.539Z,1.80
2022-10-05T12:30:25.033Z,1.90
2022-10-05T12:33:02.462Z,1.60
2022-10-05T12:35:49.445Z,1.80
2022-10-05T12:38:23.727Z,1.67
2022-10-05T12:41:00.229Z,1.70
2022-10-05T12:43:34.177Z,2.27
2022-10-05T12:46:12.979Z,1.70
2022-10-05T12:49:07.861Z,1.63
2022-10-05T12:51:41.966Z,1.40
2022-10-05T12:54:19.023Z,1.40
2022-10-05T12:56:53.214Z,1.33
2022-10-05T12:59:31.839Z,1.15
2022-10-05T13:02:06.407Z,1.30
2022-10-05T13:04:45.269Z,1.30
2022-10-05T13:07:30.693Z,1.15
2022-10-05T13:10:07.562Z,1.20
2022-10-05T13:12:44.408Z,1.20
2022-10-05T13:15:19.587Z,1.15
2022-10-05T13:17:56.611Z,1.00
2022-10-05T13:20:32.906Z,1.30
2022-10-05T13:23:06.641Z,1.10
2022-10-05T13:25:38.588Z,1.00
2022-10-05T13:28:16.941Z,1.20
2022-10-05T13:30:54.227Z,1.08
2022-10-05T13:33:28.556Z,1.25
2022-10-05T13:36:04.816Z,1.10
2022-10-05T13:38:45.028Z,1.10
2022-10-05T13:41:21.779Z,1.45
2022-10-05T13:43:59.748Z,1.10
2022-10-05T13:46:36.663Z,1.00
2022-10-05T13:49:16.526Z,0.87
2022-10-05T13:51:49.872Z,0.90
2022-10-05T13:54:23.020Z,1.20
2022-10-05T13:56:56.435Z,1.17
2022-10-05T13:59:29.205Z,1.00
2022-10-05T14:01:58.942Z,1.13
2022-10-05T14:04:29.843Z,1.25
2022-10-05T14:07:20.589Z,1.13
2022-10-05T14:09:49.966Z,1.10
2022-10-05T14:12:21.315Z,1.00
2022-10-05T14:14:50.220Z,1.03
2022-10-05T14:17:32.188Z,1.17
2022-10-05T14:20:01.844Z,1.23
2022-10-05T14:22:29.850Z,1.20
2022-10-05T14:25:13.464Z,1.38
2022-10-05T14:27:50.331Z,1.00
2022-10-05T14:30:20.648Z,1.15
2022-10-05T14:32:50.902Z,1.17
2022-10-05T14:35:19.650Z,1.10
2022-10-05T14:37:58.154Z,1.10
2022-10-05T14:40:28.721Z,1.17
2022-10-05T14:42:56.145Z,1.33
2022-10-05T14:45:24.116Z,1.10
2022-10-05T14:47:53.190Z,1.20
2022-10-05T14:50:22.271Z,1.20
2022-10-05T14:53:07.918Z,1.30
2022-10-05T14:55:47.069Z,1.50
2022-10-05T14:58:25.976Z,1.33
2022-10-05T15:01:00.911Z,1.20
2022-10-05T15:03:38.156Z,1.00
2022-10-05T15:06:13.992Z,0.87
2022-10-05T15:08:52.344Z,1.20
2022-10-05T15:11:30.054Z,0.98
2022-10-05T15:13:56.582Z,1.30
2022-10-05T15:16:29.115Z,1.08
2022-10-05T15:19:06.260Z,1.10
2022-10-05T15:21:39.120Z,1.20
2022-10-05T15:24:15.690Z,1.20
2022-10-05T15:26:48.442Z,1.33
2022-10-05T15:29:27.930Z,1.23
2022-10-05T15:32:04.484Z,0.80
2022-10-05T15:34:40.240Z,1.25
2022-10-05T15:37:14.837Z,1.20
2022-10-05T15:39:49.274Z,1.13
2022-10-05T15:42:19.719Z,1.10
2022-10-05T15:45:04.315Z,1.00
2022-10-05T15:47:44.116Z,1.30
2022-10-05T15:50:19.517Z,1.20
2022-10-05T15:52:54.318Z,1.00
2022-10-05T15:55:33.999Z,1.17
2022-10-05T15:58:20.079Z,1.10
2022-10-05T16:00:50.239Z,1.10
2022-10-05T16:03:25.870Z,1.38
2022-10-05T16:05:59.485Z,1.48
2022-10-05T16:08:50.573Z,1.50
2022-10-05T16:11:26.006Z,1.20
2022-10-05T16:14:03.473Z,1.10
2022-10-05T16:16:38.125Z,1.30
2022-10-05T16:19:13.734Z,1.00
2022-10-05T16:21:50.795Z,1.30
2022-10-05T16:24:39.921Z,1.20
2022-10-05T16:27:17.573Z,1.02
2022-10-05T16:29:51.314Z,1.10
2022-10-05T16:32:22.376Z,1.00
2022-10-05T16:35:04.315Z,1.02
2022-10-05T16:37:38.598Z,1.20
2022-10-05T16:40:18.028Z,1.20
2022-10-05T16:42:57.697Z,1.25
2022-10-05T16:45:44.728Z,1.30
2022-10-05T16:48:19.714Z,1.42
2022-10-05T16:51:02.170Z,0.90
2022-10-05T16:53:36.262Z,1.00
2022-10-05T16:56:07.059Z,1.23
2022-10-05T16:58:52.596Z,1.20
2022-10-05T17:01:32.107Z,1.25
2022-10-05T17:04:14.241Z,1.30
2022-10-05T17:06:53.867Z,1.20
2022-10-05T17:09:50.555Z,1.63
2022-10-05T17:12:27.766Z,1.63
2022-10-05T17:15:16.392Z,1.60
2022-10-05T17:18:04.565Z,1.40
2022-10-05T17:20:53.648Z,1.75
2022-10-05T17:23:31.555Z,1.48
2022-10-05T17:26:15.879Z,1.35
2022-10-05T17:28:59.224Z,1.67
2022-10-05T17:31:29.162Z,1.30
2022-10-05T17:34:24.858Z,1.67
2022-10-05T17:36:55.591Z,1.60
2022-10-05T17:39:23.552Z,1.75
2022-10-05T17:41:50.546Z,1.60
2022-10-05T17:44:20.195Z,1.70
2022-10-05T17:46:50.081Z,1.75
2022-10-05T17:49:25.486Z,1.63
2022-10-05T17:52:04.587Z,1.40
2022-10-05T17:54:52.587Z,1.70
2022-10-05T17:57:22.035Z,1.33
2022-10-05T17:59:57.835Z,1.63
2022-10-05T18:02:40.326Z,1.40
2022-10-05T18:05:21.631Z,1.58
2022-10-05T18:08:23.075Z,1.52
2022-10-05T18:11:13.059Z,1.27
2022-10-05T18:13:44.447Z,1.60
2022-10-05T18:16:11.265Z,1.35
2022-10-05T18:18:58.327Z,1.75
2022-10-05T18:21:35.353Z,1.52
2022-10-05T18:24:27.501Z,1.33
2022-10-05T18:27:04.435Z,1.30
2022-10-05T18:29:48.353Z,1.42
2022-10-05T18:32:24.836Z,1.30
2022-10-05T18:35:01.857Z,1.38
2022-10-05T18:37:42.496Z,1.30
2022-10-05T18:40:26.566Z,1.50
2022-10-05T18:43:01.338Z,1.15
2022-10-05T18:45:37.732Z,1.27
2022-10-05T18:48:18.039Z,1.33
2022-10-05T18:50:53.549Z,1.50
2022-10-05T18:53:29.362Z,1.35
2022-10-05T18:56:01.610Z,1.70
2022-10-05T18:58:35.927Z,1.20
2022-10-05T19:01:18.973Z,1.60
2022-10-05T19:03:58.483Z,1.40
2022-10-05T19:06:29.559Z,1.45
2022-10-05T19:09:08.937Z,1.13
2022-10-05T19:11:43.072Z,1.48
2022-10-05T19:14:21.475Z,1.45
2022-10-05T19:17:01.021Z,1.20
2022-10-05T19:19:39.803Z,1.33
2022-10-05T19:22:19.821Z,1.38
2022-10-05T19:25:08.081Z,1.50
2022-10-05T19:27:45.171Z,1.50
2022-10-05T19:30:19.015Z,1.60
2022-10-05T19:33:10.341Z,1.73
2022-10-05T19:35:48.323Z,1.70
2022-10-05T19:38:25.306Z,1.38
2022-10-05T19:41:00.086Z,1.50
2022-10-05T19:43:42.297Z,1.40
2022-10-05T19:46:19.957Z,1.52
2022-10-05T19:48:49.795Z,1.42
2022-10-05T19:51:26.799Z,1.50
2022-10-05T19:53:57.311Z,1.63
2022-10-05T19:56:25.634Z,1.17
2022-10-05T19:58:53.561Z,1.33
2022-10-05T20:01:26.135Z,1.42
2022-10-05T20:03:54.004Z,1.33
2022-10-05T20:06:21.436Z,1.27
2022-10-05T20:08:53.546Z,1.40
2022-10-05T20:11:23.167Z,1.40
2022-10-05T20:14:24.794Z,1.40
2022-10-05T20:17:25.723Z,1.30
2022-10-05T20:19:52.558Z,1.15
2022-10-05T20:22:31.105Z,1.17
2022-10-05T20:24:59.798Z,1.30
2022-10-05T20:27:43.978Z,1.67
2022-10-05T20:30:11.991Z,1.30
2022-10-05T20:32:38.692Z,1.50
2022-10-05T20:35:06.547Z,1.30
2022-10-05T20:37:34.134Z,1.10
2022-10-05T20:40:03.100Z,1.80
2022-10-05T20:42:29.935Z,1.30
2022-10-05T20:44:57.829Z,1.40
2022-10-05T20:47:25.208Z,1.33
2022-10-05T20:49:51.807Z,1.50
2022-10-05T20:52:18.557Z,1.70
2022-10-05T20:57:12.889Z,1.67
2022-10-05T20:59:39.837Z,1.40
2022-10-05T21:02:08.124Z,1.58
2022-10-05T21:04:40.901Z,1.30
2022-10-05T21:07:08.614Z,1.50
2022-10-05T21:09:35.261Z,1.50
2022-10-05T21:12:01.796Z,1.30
2022-10-05T21:14:28.633Z,1.20
2022-10-05T21:16:55.153Z,1.40
2022-10-05T21:19:23.213Z,1.40
2022-10-05T21:21:49.745Z,1.50
2022-10-05T21:24:18.688Z,1.13
2022-10-05T21:26:45.259Z,1.40
2022-10-05T21:29:12.962Z,1.70
2022-10-05T21:31:39.900Z,1.35
2022-10-05T21:34:07.842Z,1.35
2022-10-05T21:36:35.905Z,1.40
2022-10-05T21:39:03.483Z,1.27
2022-10-05T21:41:30.017Z,1.50
2022-10-05T21:43:56.735Z,1.45
2022-10-05T21:46:24.536Z,1.40
2022-10-05T21:48:51.430Z,1.50
2022-10-05T21:51:19.200Z,1.30
2022-10-05T21:53:51.889Z,1.38
2022-10-05T21:56:22.188Z,1.40
2022-10-05T21:58:50.367Z,1.25
2022-10-05T22:01:22.278Z,1.40
2022-10-05T22:03:49.308Z,1.67
2022-10-05T22:06:16.007Z,1.52
2022-10-05T22:08:42.643Z,0.90
2022-10-05T22:11:12.643Z,0.70
2022-10-05T22:13:41.461Z,0.80
2022-10-05T22:16:08.087Z,0.80
2022-10-05T22:18:36.901Z,0.65
2022-10-05T22:21:05.619Z,0.55
2022-10-05T22:23:32.393Z,0.70
2022-10-05T22:25:59.229Z,0.50
2022-10-05T22:28:27.884Z,0.65
2022-10-05T22:30:55.228Z,0.60
2022-10-05T22:33:21.769Z,0.68
2022-10-05T22:35:48.623Z,0.60
2022-10-05T22:38:15.279Z,0.83
2022-10-05T22:40:43.947Z,0.60
2022-10-05T22:43:11.970Z,1.45
2022-10-05T22:45:39.937Z,0.60
2022-10-05T22:48:06.538Z,0.90
2022-10-05T22:50:33.437Z,1.30
2022-10-05T22:53:00.285Z,0.75
2022-10-05T22:55:26.803Z,0.70
2022-10-05T22:57:58.405Z,0.63
2022-10-05T23:00:40.443Z,0.68
2022-10-05T23:03:15.358Z,0.60
2022-10-05T23:05:41.874Z,0.65
2022-10-05T23:08:08.473Z,0.60
2022-10-05T23:10:34.973Z,0.70
2022-10-05T23:13:01.875Z,0.60
2022-10-05T23:15:28.402Z,0.77
2022-10-05T23:17:54.907Z,1.00
2022-10-05T23:20:23.046Z,0.80
2022-10-05T23:22:49.657Z,0.60
2022-10-05T23:25:16.163Z,0.50
2022-10-05T23:27:42.997Z,0.50
2022-10-05T23:30:11.331Z,0.50
2022-10-05T23:32:38.824Z,0.50
2022-10-05T23:35:07.303Z,0.43
2022-10-05T23:37:38.279Z,0.60
2022-10-05T23:40:07.119Z,0.67
2022-10-05T23:42:33.685Z,0.40
2022-10-05T23:45:00.178Z,0.50
2022-10-05T23:47:26.748Z,0.80
2022-10-05T23:49:53.613Z,0.40
2022-10-05T23:52:20.177Z,0.40
2022-10-05T23:54:48.130Z,0.50
2022-10-05T23:57:15.774Z,0.60
2022-10-05T23:59:42.279Z,0.68
